Hlavní strana
METAR-TAF:

METAR-TAF

Letiště :

Mitiga International Airport

Tripolis, Libye

zeměpisná šířka: 32-54N, zeměpisná délka: 13-17E, výška: 11 m

Aktuální stav počasí

Zpráva byla vytvořena před 3 hodinami a 54 minutami, v 21:30 UTC
Východoseverovýchodní vítr 2 kt
Teplota 26°C
Vlhkost vzduchu 79%
Tlak 1017 hPa
Viditelnost: 7000 m
Polojasno ve výšce 6000 ft

METAR: HLLM 172130Z 07002KT 7000 SCT060 26/22 Q1017

Čas: 03:24 (01:24 UTC)

Předpověď počasí

Zpráva byla vytvořena před 2 hodinami a 24 minutami, v 23:00 UTC
Předpověď platná od 18 v 00 UTC do 18 v 24 UTC
vítr z různých směrů 2 kt
Viditelnost: 8000 m
Změna
od 18 v 10 UTC do 18 v 12 UTC
Severní vítr 10 kt
Viditelnost 10 km a více
Žádná oblačnost pod 1500 m, nevyskytují se cumulonimby.
Změna
od 18 v 18 UTC do 18 v 20 UTC
Východoseverovýchodní vítr 10 kt

TAF: HLLM 172300Z 1800/1824 VRB02KT 8000 NSC BECMG 1810/1812 36010KT CAVOK BECMG 1818/1820 06010KT

Stav a předpovědi počasí z více než 4 000 letišť (zprávy METAR a TAF).

Červené a žluté tečky na mapě představují dostupné meteorologické stanice.

Když kurzor umístíte na tečku, zobrazí se název stanice.

Pak kliknutím zobrazíte stav a předpověď počasí.

Chcete-li změnit mapu, kliknutím na zelené tlačítko se znaménkem +mapu přiblížíte, kliknutím na zelené tlačítko se znaménkem – mapu oddálíte a kliknutím na zelené šipky přejdete na sousední mapy.


METAR-TAF: